Time;durP1;ratioP1;P1;durP2;ratioP2;P2;SDS_P1;SDS_P2;PMS_P1;PMS_P2;Temp;Humidity;BMP_temperature;BMP_pressure;BME280_temperature;BME280_humidity;BME280_pressure;Samples;Min_cycle;Max_cycle;Signal;HPM_P1;HPM_P2
2022/06/29 00:00:53;;;;;;;;;0.00;0.00;;;;;21.05;41.71;100670.22;5097494;27;45458;-78
2022/06/29 00:03:18;;;;;;;;;0.50;0.50;;;;;20.80;42.27;100643.13;5097877;27;45451;-77
2022/06/29 00:05:44;;;;;;;;;0.50;0.50;;;;;20.98;42.14;100673.38;5097446;27;45521;-76
2022/06/29 00:08:09;;;;;;;;;0.75;0.75;;;;;20.97;42.45;100675.22;5098186;27;45318;-78
2022/06/29 00:10:36;;;;;;;;;3.00;1.00;;;;;20.89;42.55;100664.06;5091868;27;45340;-78
2022/06/29 00:13:02;;;;;;;;;1.00;1.00;;;;;20.91;42.80;100667.53;5088722;27;45427;-77
2022/06/29 00:15:28;;;;;;;;;1.00;1.00;;;;;20.91;43.55;100667.53;5097533;27;46222;-78
2022/06/29 00:17:53;;;;;;;;;2.25;2.25;;;;;20.87;43.23;100671.34;5097680;27;45382;-77
2022/06/29 00:20:19;;;;;;;;;2.50;1.75;;;;;20.68;43.33;100642.94;5096294;27;45595;-78
2022/06/29 00:22:45;;;;;;;;;2.00;0.50;;;;;20.76;43.41;100656.75;5096297;27;45477;-83
2022/06/29 00:25:12;;;;;;;;;1.00;1.00;;;;;20.74;43.26;100658.69;5097206;27;46905;-83
2022/06/29 00:27:38;;;;;;;;;1.00;1.00;;;;;20.71;43.59;100652.63;5096325;27;45453;-82
2022/06/29 00:30:05;;;;;;;;;0.00;0.00;;;;;20.79;43.72;100670.97;5096625;27;45415;-82
2022/06/29 00:32:31;;;;;;;;;1.50;1.00;;;;;20.73;43.75;100670.38;5095125;27;45461;-78
2022/06/29 00:34:57;;;;;;;;;1.00;1.00;;;;;20.72;43.98;100663.25;5096790;27;46293;-77
2022/06/29 00:37:22;;;;;;;;;2.00;0.75;;;;;20.64;44.06;100654.78;5096549;27;45425;-77
2022/06/29 00:39:47;;;;;;;;;2.00;2.00;;;;;20.63;44.57;100661.13;5097556;27;45330;-83
2022/06/29 00:42:13;;;;;;;;;1.00;1.00;;;;;20.62;44.64;100661.19;5096369;27;45555;-82
2022/06/29 00:44:38;;;;;;;;;1.50;1.50;;;;;20.57;44.42;100648.06;5097045;27;45385;-81
2022/06/29 00:47:05;;;;;;;;;0.00;0.00;;;;;20.49;44.84;100639.63;5098441;27;45342;-82
2022/06/29 00:49:32;;;;;;;;;1.75;0.25;;;;;20.54;44.95;100659.88;5095450;27;45454;-82
2022/06/29 00:52:12;;;;;;;;;2.50;2.00;;;;;20.51;45.24;100667.22;5094331;27;45587;-83
2022/06/29 00:54:42;;;;;;;;;1.00;1.00;;;;;20.48;45.20;100651.31;5077244;27;46133;-83
2022/06/29 00:57:19;;;;;;;;;1.25;1.00;;;;;20.46;45.50;100658.59;5090008;27;45598;-82
2022/06/29 00:59:48;;;;;;;;;1.25;0.25;;;;;20.40;45.50;100649.94;5096656;27;45410;-82
2022/06/29 01:02:16;;;;;;;;;5.25;2.00;;;;;20.41;45.99;100649.00;5095999;27;45401;-82
2022/06/29 01:04:44;;;;;;;;;2.25;2.00;;;;;20.32;46.02;100649.56;5095999;27;46368;-81
2022/06/29 01:07:13;;;;;;;;;2.25;2.00;;;;;20.35;46.27;100654.72;5096647;27;45334;-82
2022/06/29 01:09:38;;;;;;;;;2.25;2.25;;;;;20.29;46.41;100649.72;5094689;27;45606;-82
2022/06/29 01:12:04;;;;;;;;;1.50;0.75;;;;;20.27;46.83;100651.66;5096042;27;45518;-82
2022/06/29 01:14:30;;;;;;;;;3.00;1.25;;;;;20.27;46.99;100651.66;5100856;27;45468;-82
2022/06/29 01:16:55;;;;;;;;;6.00;3.00;;;;;20.10;47.19;100623.13;5104058;27;45450;-82
2022/06/29 01:19:21;;;;;;;;;3.00;2.00;;;;;20.14;47.09;100630.03;5099660;27;45613;-80
2022/06/29 01:21:51;;;;;;;;;3.00;1.75;;;;;20.21;47.18;100649.34;5096294;27;45566;-82
2022/06/29 01:24:16;;;;;;;;;2.50;1.75;;;;;20.16;47.70;100651.41;5105936;27;45410;-82
2022/06/29 01:26:41;;;;;;;;;1.50;1.50;;;;;20.16;47.69;100652.28;5104701;27;45328;-80
2022/06/29 01:29:07;;;;;;;;;1.50;1.25;;;;;20.02;48.11;100628.94;5097258;27;45280;-82
2022/06/29 01:31:32;;;;;;;;;1.00;1.00;;;;;20.06;48.05;100643.91;5095881;27;45514;-77
2022/06/29 01:34:00;;;;;;;;;1.00;1.00;;;;;20.11;48.21;100645.47;5095272;27;46548;-78
2022/06/29 01:36:26;;;;;;;;;2.00;2.00;;;;;20.06;48.29;100643.91;5094381;27;45505;-78
2022/06/29 01:38:51;;;;;;;;;1.00;1.00;;;;;19.97;48.51;100628.34;5095538;27;45819;-77
2022/06/29 01:41:16;;;;;;;;;3.25;2.00;;;;;20.03;48.45;100643.22;5094751;27;45475;-77
2022/06/29 01:43:42;;;;;;;;;1.75;1.75;;;;;19.97;48.33;100639.09;5095416;27;45985;-77
2022/06/29 01:46:07;;;;;;;;;1.00;1.00;;;;;20.02;48.79;100644.19;5096314;27;45411;-80
2022/06/29 01:48:33;;;;;;;;;3.00;1.50;;;;;19.97;48.67;100639.09;5095578;27;45450;-78
2022/06/29 01:50:59;;;;;;;;;3.25;1.25;;;;;19.98;48.76;100637.25;5094824;27;45568;-78
2022/06/29 01:53:25;;;;;;;;;2.75;1.50;;;;;19.95;48.83;100637.44;5083992;27;46476;-78
2022/06/29 01:55:50;;;;;;;;;1.00;1.00;;;;;19.93;49.30;100645.56;5088386;27;45452;-77
2022/06/29 01:58:16;;;;;;;;;2.00;2.00;;;;;19.83;49.35;100631.84;5080246;27;45397;-77
2022/06/29 02:00:43;;;;;;;;;2.00;1.00;;;;;19.86;49.42;100636.16;5094438;27;45669;-79
2022/06/29 02:03:09;;;;;;;;;1.00;1.00;;;;;19.83;49.39;100647.94;5094131;27;45616;-77
2022/06/29 02:05:34;;;;;;;;;1.75;1.75;;;;;19.82;49.51;100650.69;5093542;27;45696;-77
2022/06/29 02:07:59;;;;;;;;;2.00;2.00;;;;;19.71;49.65;100628.00;5095219;27;45466;-78
2022/06/29 02:10:25;;;;;;;;;1.00;1.00;;;;;19.79;49.52;100645.53;5095582;27;45424;-76
2022/06/29 02:12:50;;;;;;;;;3.50;3.00;;;;;19.66;49.89;100638.16;5092515;27;48206;-78
2022/06/29 02:15:16;;;;;;;;;2.00;2.00;;;;;19.72;50.00;100644.94;5075543;27;45498;-78
2022/06/29 02:17:41;;;;;;;;;2.75;1.75;;;;;19.68;50.00;100641.59;5087325;27;45510;-78
2022/06/29 02:20:07;;;;;;;;;1.00;1.00;;;;;19.70;50.19;100647.72;5095166;27;45499;-77
2022/06/29 02:22:33;;;;;;;;;1.50;1.50;;;;;19.65;49.84;100639.09;5093928;27;46247;-78
2022/06/29 02:24:58;;;;;;;;;2.75;2.00;;;;;19.58;50.15;100637.69;5094853;27;45513;-77
2022/06/29 02:27:23;;;;;;;;;1.00;1.00;;;;;19.39;50.34;100612.88;5094930;27;45376;-77
2022/06/29 02:29:49;;;;;;;;;1.00;1.00;;;;;19.50;49.87;100634.59;5094940;27;45579;-77
2022/06/29 02:34:58;;;;;;;;;3.00;2.00;;;;;19.49;50.45;100638.22;5074768;28;45441;-78
2022/06/29 02:37:23;;;;;;;;;1.25;1.25;;;;;19.49;50.22;100643.59;5085177;27;45498;-77
2022/06/29 02:39:49;;;;;;;;;1.25;1.25;;;;;19.47;50.79;100641.00;5094789;27;45425;-77
2022/06/29 02:42:15;;;;;;;;;4.25;2.25;;;;;19.42;50.68;100636.81;5093700;27;46211;-77
2022/06/29 02:44:40;;;;;;;;;2.75;2.00;;;;;19.35;50.78;100637.19;5094739;27;45348;-77
2022/06/29 02:47:07;;;;;;;;;2.00;2.00;;;;;19.31;50.94;100638.31;5094899;27;45559;-77
2022/06/29 02:49:33;;;;;;;;;3.00;1.00;;;;;19.31;51.23;100640.13;5094037;27;45396;-77
2022/06/29 02:51:58;;;;;;;;;2.00;2.00;;;;;19.27;50.95;100639.44;5091267;27;45430;-78
2022/06/29 02:54:24;;;;;;;;;3.00;1.00;;;;;19.25;51.50;100635.97;5095010;27;45415;-78
2022/06/29 02:56:49;;;;;;;;;2.00;2.00;;;;;19.19;51.52;100625.56;5079008;27;45471;-76
2022/06/29 02:59:15;;;;;;;;;3.75;2.25;;;;;19.15;51.48;100619.53;5095097;27;45596;-79
2022/06/29 03:01:40;;;;;;;;;3.00;3.00;;;;;19.11;51.79;100611.75;5075695;27;45529;-78
2022/06/29 03:04:06;;;;;;;;;2.00;2.00;;;;;19.17;51.81;100630.16;5073873;27;45532;-77
2022/06/29 03:06:31;;;;;;;;;2.00;1.00;;;;;19.07;51.28;100615.53;5080535;27;45454;-78
2022/06/29 03:08:57;;;;;;;;;2.25;2.25;;;;;19.06;51.69;100620.03;5094693;27;45471;-78
2022/06/29 03:11:22;;;;;;;;;2.00;2.00;;;;;19.07;51.64;100635.19;5093369;27;47082;-78
2022/06/29 03:13:48;;;;;;;;;3.00;1.75;;;;;19.02;51.55;100629.19;5093805;27;45401;-78
2022/06/29 03:16:13;;;;;;;;;3.00;2.00;;;;;19.04;51.67;100631.78;5092733;27;45426;-77
2022/06/29 03:18:39;;;;;;;;;5.00;3.25;;;;;18.87;51.73;100613.97;5092929;27;45615;-78
2022/06/29 03:21:04;;;;;;;;;1.75;1.75;;;;;18.87;51.90;100625.53;5095404;27;45386;-77
2022/06/29 03:23:29;;;;;;;;;3.00;2.00;;;;;18.91;51.67;100627.09;5096817;27;45437;-78
2022/06/29 03:25:55;;;;;;;;;2.50;2.00;;;;;18.91;52.04;100637.81;5094741;27;45366;-78
2022/06/29 03:28:20;;;;;;;;;2.00;2.00;;;;;18.93;51.96;100633.25;5076287;27;45940;-78
2022/06/29 03:30:46;;;;;;;;;1.50;1.50;;;;;18.90;52.31;100629.84;5083606;27;46141;-79
2022/06/29 03:33:11;;;;;;;;;2.00;2.00;;;;;18.88;52.36;100637.97;5094018;27;45497;-77
2022/06/29 03:35:36;;;;;;;;;5.25;2.00;;;;;18.79;52.56;100625.03;5091863;27;45367;-77
2022/06/29 03:38:02;;;;;;;;;1.00;1.00;;;;;18.79;52.37;100625.03;5093151;27;45396;-76
2022/06/29 03:40:28;;;;;;;;;1.25;1.25;;;;;18.78;52.53;100625.97;5094347;27;45434;-78
2022/06/29 03:42:55;;;;;;;;;1.50;1.50;;;;;18.74;52.80;100621.75;5091853;27;45612;-78
2022/06/29 03:45:21;;;;;;;;;1.75;1.75;;;;;18.78;53.10;100620.63;5093922;27;45430;-77
2022/06/29 03:47:47;;;;;;;;;3.75;3.00;;;;;18.77;53.02;100626.94;5093336;27;45518;-78
2022/06/29 03:50:13;;;;;;;;;1.00;1.00;;;;;18.71;53.59;100613.91;5094279;27;45585;-78
2022/06/29 03:52:39;;;;;;;;;2.00;2.00;;;;;18.70;53.39;100620.19;5094094;27;45510;-78
2022/06/29 03:55:06;;;;;;;;;3.00;3.00;;;;;18.67;53.02;100612.31;5092313;27;45403;-76
2022/06/29 03:57:31;;;;;;;;;3.00;3.00;;;;;18.70;53.87;100625.53;5088483;27;45453;-78
2022/06/29 03:59:57;;;;;;;;;3.00;1.25;;;;;18.63;53.72;100617.84;5098154;27;45634;-80
2022/06/29 04:02:22;;;;;;;;;6.25;3.00;;;;;18.64;53.88;100624.94;5099989;27;45337;-82
2022/06/29 04:04:47;;;;;;;;;4.00;3.00;;;;;18.68;53.90;100632.78;5095733;27;45789;-82
2022/06/29 04:07:13;;;;;;;;;1.75;1.75;;;;;18.70;54.31;100636.25;5093074;27;45642;-82
2022/06/29 04:09:38;;;;;;;;;2.00;2.00;;;;;18.70;53.90;100625.53;5094289;27;46375;-80
2022/06/29 04:12:04;;;;;;;;;2.00;2.00;;;;;18.75;53.91;100634.19;5093807;27;45437;-82
2022/06/29 04:14:29;;;;;;;;;1.50;1.50;;;;;18.75;53.72;100626.16;5093482;27;45486;-82
2022/06/29 04:16:57;;;;;;;;;3.00;3.00;;;;;18.77;53.66;100625.13;5092777;27;45419;-82
2022/06/29 04:19:24;;;;;;;;;2.00;2.00;;;;;18.86;53.67;100634.53;5092981;27;45599;-82
2022/06/29 04:21:50;;;;;;;;;1.00;1.00;;;;;19.05;53.18;100631.69;5094463;27;45525;-82
2022/06/29 04:24:17;;;;;;;;;2.00;2.00;;;;;19.54;52.36;100628.13;5094208;27;45500;-82
2022/06/29 04:26:43;;;;;;;;;3.75;2.75;;;;;20.10;51.15;100624.94;5092264;27;45586;-82
2022/06/29 04:29:08;;;;;;;;;3.50;2.00;;;;;20.55;49.60;100615.94;5096105;27;45527;-82
2022/06/29 04:31:35;;;;;;;;;1.00;1.00;;;;;21.16;48.50;100623.00;5097301;27;45399;-82
2022/06/29 04:34:01;;;;;;;;;4.00;4.00;;;;;21.69;47.01;100621.38;5096927;27;45433;-80
2022/06/29 04:36:27;;;;;;;;;3.00;3.00;;;;;22.23;46.04;100630.34;5096332;27;45548;-82
2022/06/29 04:38:54;;;;;;;;;2.00;2.00;;;;;22.66;44.64;100622.06;5096109;27;46282;-78
2022/06/29 04:41:19;;;;;;;;;2.00;2.00;;;;;23.09;43.95;100619.03;5096729;27;45441;-77
2022/06/29 04:43:46;;;;;;;;;2.25;2.00;;;;;23.54;42.97;100603.16;5095661;27;45376;-78
2022/06/29 04:46:21;;;;;;;;;3.25;3.25;;;;;23.93;42.16;100605.72;5096616;27;45421;-78
2022/06/29 04:48:58;;;;;;;;;3.75;2.00;;;;;24.41;40.96;100585.84;5074721;28;45680;-77
2022/06/29 04:51:26;;;;;;;;;4.00;2.00;;;;;25.00;39.71;100599.19;5078729;27;45457;-77
2022/06/29 04:53:56;;;;;;;;;3.25;3.25;;;;;25.58;39.10;100598.16;5096067;27;45513;-78
2022/06/29 04:56:23;;;;;;;;;3.00;2.25;;;;;26.10;37.71;100592.94;5091996;27;45516;-77
2022/06/29 04:58:49;;;;;;;;;2.50;2.00;;;;;26.58;37.11;100596.97;5093227;27;46328;-78
2022/06/29 05:01:18;;;;;;;;;3.25;2.25;;;;;27.02;36.06;100591.34;5096227;27;45530;-79
2022/06/29 05:03:43;;;;;;;;;3.00;2.00;;;;;27.43;35.66;100587.63;5095966;27;45450;-78
2022/06/29 05:06:09;;;;;;;;;3.00;3.00;;;;;27.80;35.23;100586.97;5094166;27;45655;-77
2022/06/29 05:08:34;;;;;;;;;3.00;3.00;;;;;28.14;33.42;100583.84;5096311;27;45418;-78
2022/06/29 05:11:02;;;;;;;;;3.25;3.00;;;;;28.50;33.59;100578.63;5094413;27;45434;-82
2022/06/29 05:13:28;;;;;;;;;4.25;2.50;;;;;28.84;32.99;100572.66;5096779;27;45542;-77
2022/06/29 05:15:53;;;;;;;;;2.75;2.50;;;;;29.48;32.12;100589.09;5093490;27;45465;-81
2022/06/29 05:18:19;;;;;;;;;2.00;1.75;;;;;30.11;30.85;100581.91;5099490;27;46322;-82
2022/06/29 05:20:50;;;;;;;;;4.00;3.00;;;;;30.64;30.41;100574.63;5100715;27;45365;-79
2022/06/29 05:23:16;;;;;;;;;3.00;3.00;;;;;31.07;29.95;100583.72;5095614;27;45455;-77
2022/06/29 05:25:42;;;;;;;;;1.75;1.75;;;;;31.46;29.33;100560.47;5096183;27;45319;-79
2022/06/29 05:28:08;;;;;;;;;3.00;2.00;;;;;31.91;28.03;100572.84;5096721;27;45405;-79
2022/06/29 05:30:34;;;;;;;;;2.00;2.00;;;;;32.19;27.96;100572.53;5085671;27;45540;-79
2022/06/29 05:33:00;;;;;;;;;3.25;2.00;;;;;32.47;27.21;100574.91;5085874;27;45545;-80
2022/06/29 05:35:27;;;;;;;;;2.50;1.75;;;;;32.76;27.37;100574.31;5086210;27;45368;-80
2022/06/29 05:37:53;;;;;;;;;2.00;2.00;;;;;33.08;25.98;100576.06;5091549;27;46801;-80
2022/06/29 05:40:18;;;;;;;;;1.00;1.00;;;;;33.32;25.73;100584.38;5076786;27;45529;-81
2022/06/29 05:42:44;;;;;;;;;1.50;1.50;;;;;33.56;25.38;100583.38;5092067;27;45453;-80
2022/06/29 05:45:09;;;;;;;;;2.00;2.00;;;;;33.86;24.57;100591.75;5080381;27;45498;-81
2022/06/29 05:47:35;;;;;;;;;6.75;2.00;;;;;33.93;24.54;100584.50;5092000;27;45485;-77
2022/06/29 05:50:00;;;;;;;;;1.00;1.00;;;;;34.09;24.86;100591.72;5080334;27;45442;-78
2022/06/29 05:52:27;;;;;;;;;1.75;1.75;;;;;34.30;24.45;100599.28;5081091;27;45709;-77
2022/06/29 05:54:52;;;;;;;;;1.50;1.25;;;;;34.59;24.52;100587.53;5093583;27;45664;-77
2022/06/29 05:57:19;;;;;;;;;1.25;1.25;;;;;34.89;23.25;100593.03;5093838;27;46328;-76
2022/06/29 05:59:48;;;;;;;;;1.75;0.75;;;;;35.12;23.21;100584.69;5089945;27;45476;-77
2022/06/29 06:02:13;;;;;;;;;1.75;1.75;;;;;35.49;22.64;100590.22;5107139;27;45889;-78
2022/06/29 06:04:40;;;;;;;;;2.00;2.00;;;;;35.52;22.53;100576.94;5082196;27;45682;-78
2022/06/29 06:07:05;;;;;;;;;2.00;2.00;;;;;36.01;22.53;100574.50;5092856;27;45756;-78
2022/06/29 06:09:32;;;;;;;;;0.00;0.00;;;;;36.15;21.74;100553.44;5084245;27;45388;-79
2022/06/29 06:11:58;;;;;;;;;2.00;1.00;;;;;36.56;21.50;100561.78;5086689;27;45224;-79
2022/06/29 06:14:24;;;;;;;;;1.00;1.00;;;;;36.95;20.73;100576.88;5085404;27;45407;-76
2022/06/29 06:16:49;;;;;;;;;1.00;1.00;;;;;37.25;20.57;100576.59;5086279;27;45437;-77
2022/06/29 06:19:15;;;;;;;;;1.00;1.00;;;;;37.45;20.43;100576.66;5081674;27;45549;-79
2022/06/29 06:21:40;;;;;;;;;1.00;1.00;;;;;37.62;20.02;100581.78;5079425;27;45550;-78
2022/06/29 06:24:06;;;;;;;;;0.75;0.50;;;;;37.87;19.68;100584.84;5088671;27;45532;-82
2022/06/29 06:26:31;;;;;;;;;0.50;0.50;;;;;37.90;19.58;100589.94;5085423;27;46119;-76
2022/06/29 06:28:58;;;;;;;;;0.50;0.50;;;;;38.24;19.86;100595.47;5089976;27;45661;-78
2022/06/29 06:31:25;;;;;;;;;3.00;1.00;;;;;38.37;19.53;100585.28;5081696;27;45415;-81
2022/06/29 06:33:50;;;;;;;;;1.00;1.00;;;;;38.29;19.41;100585.47;5088136;27;45568;-77
2022/06/29 06:36:15;;;;;;;;;1.50;1.50;;;;;38.55;19.49;100592.03;5084570;27;46084;-78
2022/06/29 06:38:41;;;;;;;;;0.00;0.00;;;;;38.48;19.43;100591.22;5082212;27;45599;-77
2022/06/29 06:41:21;;;;;;;;;1.50;1.00;;;;;38.84;18.88;100598.16;5093518;27;45371;-78
2022/06/29 06:43:47;;;;;;;;;0.00;0.00;;;;;39.27;18.83;100594.84;5083436;27;45496;-79
2022/06/29 06:46:12;;;;;;;;;0.00;0.00;;;;;39.09;18.63;100588.09;5089267;27;46230;-78
2022/06/29 06:48:37;;;;;;;;;1.00;1.00;;;;;39.30;18.88;100593.53;5085253;27;45541;-79
2022/06/29 06:51:03;;;;;;;;;0.00;0.00;;;;;39.41;18.09;100590.91;5083121;27;45604;-79
2022/06/29 06:53:28;;;;;;;;;1.00;1.00;;;;;39.49;17.93;100597.28;5081351;27;45663;-80
2022/06/29 06:55:54;;;;;;;;;0.00;0.00;;;;;39.65;18.04;100591.25;5083381;27;48104;-80
2022/06/29 06:58:19;;;;;;;;;1.00;1.00;;;;;39.81;17.79;100576.03;5080428;27;45485;-78
2022/06/29 07:00:44;;;;;;;;;0.00;0.00;;;;;39.57;17.59;100572.16;5084490;27;45435;-78
2022/06/29 07:03:10;;;;;;;;;1.00;1.00;;;;;39.70;17.88;100577.59;5080160;27;45595;-79
2022/06/29 07:05:35;;;;;;;;;0.00;0.00;;;;;39.60;17.41;100571.69;5097353;27;45989;-79
2022/06/29 07:08:01;;;;;;;;;2.00;0.00;;;;;39.78;17.79;100574.56;5085561;27;45589;-79
2022/06/29 07:10:27;;;;;;;;;0.00;0.00;;;;;39.83;17.60;100575.81;5087463;27;45550;-79
2022/06/29 07:12:53;;;;;;;;;0.25;0.25;;;;;40.07;17.39;100566.72;5082311;27;45583;-82
2022/06/29 07:15:18;;;;;;;;;0.00;0.00;;;;;40.30;16.51;100568.84;5093561;27;46386;-83
2022/06/29 07:17:43;;;;;;;;;0.00;0.00;;;;;40.57;17.41;100578.81;5088903;27;45449;-83
2022/06/29 07:20:09;;;;;;;;;0.00;0.00;;;;;40.64;17.16;100579.59;5088639;27;45468;-82
2022/06/29 07:22:35;;;;;;;;;1.00;0.50;;;;;40.74;16.63;100581.81;5083999;27;45502;-78
2022/06/29 07:25:00;;;;;;;;;1.00;0.00;;;;;40.83;16.53;100586.84;5086221;27;45513;-85
2022/06/29 07:27:26;;;;;;;;;0.00;0.00;;;;;40.70;16.52;100559.28;5080102;27;45480;-84
2022/06/29 07:29:52;;;;;;;;;0.00;0.00;;;;;41.03;16.50;100563.63;5082304;27;45395;-81
2022/06/29 07:32:18;;;;;;;;;0.25;0.25;;;;;40.95;15.94;100577.75;5089002;27;45627;-82
2022/06/29 07:34:44;;;;;;;;;2.00;1.00;;;;;40.03;16.96;100565.47;5083529;27;46926;-78
2022/06/29 07:37:10;;;;;;;;;1.00;1.00;;;;;39.83;17.48;100565.59;5084697;27;45530;-77
2022/06/29 07:39:35;;;;;;;;;1.00;0.00;;;;;40.39;16.98;100580.47;5087112;27;45462;-77
2022/06/29 07:42:01;;;;;;;;;0.75;0.75;;;;;40.41;17.49;100567.25;5086572;27;45753;-83
2022/06/29 07:44:26;;;;;;;;;0.50;0.00;;;;;40.64;16.83;100574.91;5089723;27;45528;-82
2022/06/29 07:46:52;;;;;;;;;0.00;0.00;;;;;40.54;16.25;100573.75;5089984;27;45333;-81
2022/06/29 07:49:17;;;;;;;;;1.00;0.00;;;;;40.70;16.52;100564.81;5090657;27;45487;-82
2022/06/29 07:51:42;;;;;;;;;0.75;0.75;;;;;40.53;16.38;100558.19;5082504;27;45564;-83
2022/06/29 07:54:08;;;;;;;;;0.50;0.50;;;;;40.61;16.66;100560.69;5082909;27;45474;-81
2022/06/29 07:56:36;;;;;;;;;0.00;0.00;;;;;40.19;16.48;100569.56;5088557;27;45482;-83
2022/06/29 07:59:01;;;;;;;;;0.00;0.00;;;;;39.60;16.78;100577.22;5088608;27;45493;-83
2022/06/29 08:01:27;;;;;;;;;1.00;1.00;;;;;38.41;17.85;100568.28;5082501;27;45588;-82
2022/06/29 08:03:53;;;;;;;;;3.25;1.00;;;;;38.05;18.23;100573.16;5085396;27;46412;-78
2022/06/29 08:06:19;;;;;;;;;1.00;1.00;;;;;38.15;18.13;100568.06;5089154;27;45581;-82
2022/06/29 08:08:44;;;;;;;;;0.00;0.00;;;;;38.65;19.00;100566.78;5093335;27;45665;-81
2022/06/29 08:11:10;;;;;;;;;1.00;0.00;;;;;39.08;17.98;100567.06;5086448;27;45612;-83
2022/06/29 08:13:38;;;;;;;;;0.00;0.00;;;;;39.02;18.16;100559.63;5085554;27;45754;-81
2022/06/29 08:16:04;;;;;;;;;0.50;0.00;;;;;39.31;17.23;100573.97;5092441;27;45731;-82
2022/06/29 08:18:30;;;;;;;;;1.75;1.00;;;;;39.48;18.55;100573.44;5082376;27;45476;-78
2022/06/29 08:20:55;;;;;;;;;2.50;1.00;;;;;39.64;18.05;100559.13;5086421;27;45571;-77
2022/06/29 08:23:21;;;;;;;;;0.75;0.75;;;;;39.64;17.74;100561.06;5085126;27;46540;-78
2022/06/29 08:25:46;;;;;;;;;0.00;0.00;;;;;39.65;17.38;100573.78;5076513;27;45361;-78
2022/06/29 08:28:11;;;;;;;;;1.00;0.00;;;;;39.54;17.89;100548.59;5092446;27;45448;-78
2022/06/29 08:30:37;;;;;;;;;0.25;0.00;;;;;39.40;17.78;100560.75;5087167;27;45444;-78
2022/06/29 08:33:02;;;;;;;;;2.25;1.00;;;;;39.20;18.36;100564.47;5089709;27;46103;-79
2022/06/29 08:35:28;;;;;;;;;0.50;0.50;;;;;39.04;18.21;100556.66;5095028;27;45419;-82
2022/06/29 08:37:53;;;;;;;;;0.00;0.00;;;;;38.87;18.04;100548.00;5091224;27;45381;-82
2022/06/29 08:40:18;;;;;;;;;1.00;1.00;;;;;38.78;18.29;100552.09;5094633;27;45485;-82
2022/06/29 08:42:46;;;;;;;;;0.00;0.00;;;;;39.15;18.44;100558.75;5092164;27;45501;-78
2022/06/29 08:45:13;;;;;;;;;2.00;0.00;;;;;39.34;17.74;100532.09;5087435;27;45544;-79
2022/06/29 08:47:41;;;;;;;;;0.00;0.00;;;;;39.45;17.34;100559.03;5081511;27;45365;-78
2022/06/29 08:50:08;;;;;;;;;1.00;0.00;;;;;39.49;17.78;100553.06;5092104;27;45683;-77
2022/06/29 08:52:38;;;;;;;;;0.00;0.00;;;;;39.56;17.71;100551.13;5085118;27;46416;-78
2022/06/29 08:55:06;;;;;;;;;0.00;0.00;;;;;39.07;17.68;100556.25;5080514;27;45330;-83
2022/06/29 08:57:35;;;;;;;;;0.00;0.00;;;;;38.51;18.23;100554.91;5091514;27;45527;-83
2022/06/29 09:00:01;;;;;;;;;1.25;0.00;;;;;38.57;18.31;100554.88;5089141;27;45515;-83
2022/06/29 09:02:26;;;;;;;;;1.00;1.00;;;;;38.41;18.13;100549.81;5081414;27;47000;-82
2022/06/29 09:04:53;;;;;;;;;1.00;1.00;;;;;38.27;19.79;100559.19;5078852;27;45443;-82
2022/06/29 09:07:19;;;;;;;;;0.25;0.25;;;;;38.15;18.49;100536.88;5087290;27;45457;-83
2022/06/29 09:10:08;;;;;;;;;0.50;0.50;;;;;38.35;18.48;100561.72;5101734;27;45525;-83
2022/06/29 09:12:34;;;;;;;;;0.00;0.00;;;;;38.31;18.34;100565.97;5099561;27;46966;-81
2022/06/29 09:15:01;;;;;;;;;0.00;0.00;;;;;38.56;17.79;100566.97;5085501;27;45500;-82
2022/06/29 09:17:30;;;;;;;;;0.00;0.00;;;;;38.62;18.59;100570.78;5091866;27;45402;-83
2022/06/29 09:19:56;;;;;;;;;0.50;0.00;;;;;38.66;18.66;100560.19;5087362;27;45598;-79
2022/06/29 09:22:22;;;;;;;;;0.00;0.00;;;;;38.50;18.43;100559.56;5094744;27;46204;-79
2022/06/29 09:24:48;;;;;;;;;0.50;0.00;;;;;38.16;18.16;100567.00;5092153;27;45462;-79
2022/06/29 09:27:13;;;;;;;;;1.00;1.00;;;;;38.32;18.37;100557.47;5093754;27;45489;-80
2022/06/29 09:29:41;;;;;;;;;0.00;0.00;;;;;38.48;18.43;100569.97;5081034;27;45496;-78
2022/06/29 09:32:33;;;;;;;;;0.00;0.00;;;;;38.44;17.93;100570.63;5076274;27;46217;-79
2022/06/29 09:34:59;;;;;;;;;1.50;0.00;;;;;38.32;18.16;100581.47;5089640;27;45605;-79
2022/06/29 09:37:24;;;;;;;;;0.00;0.00;;;;;37.97;17.93;100563.19;5089081;27;45491;-79
2022/06/29 09:39:51;;;;;;;;;0.00;0.00;;;;;38.36;17.77;100574.47;5076587;27;45410;-80
2022/06/29 09:42:19;;;;;;;;;0.00;0.00;;;;;38.33;17.32;100561.09;5091029;27;46166;-80
2022/06/29 09:44:46;;;;;;;;;0.50;0.00;;;;;38.57;17.66;100585.25;5086791;27;45515;-79
2022/06/29 09:47:15;;;;;;;;;0.00;0.00;;;;;38.24;17.28;100584.44;5081156;27;45584;-80
2022/06/29 09:49:41;;;;;;;;;0.00;0.00;;;;;38.07;17.66;100572.94;5081822;27;45491;-77
2022/06/29 09:52:07;;;;;;;;;0.00;0.00;;;;;37.77;17.91;100568.69;5089090;27;45758;-80
2022/06/29 09:54:40;;;;;;;;;0.00;0.00;;;;;37.94;17.95;100579.31;5089576;27;45505;-79
2022/06/29 09:57:07;;;;;;;;;0.00;0.00;;;;;37.81;17.79;100547.06;5091686;27;45406;-83
2022/06/29 10:02:40;;;;;;;;;0.00;0.00;;;;;37.73;18.00;100572.09;5088232;27;45907;-78
2022/06/29 10:05:15;;;;;;;;;0.00;0.00;;;;;37.68;18.55;100578.19;5086993;27;45491;-82
2022/06/29 10:07:46;;;;;;;;;1.50;0.50;;;;;38.01;18.95;100566.38;5095853;27;45433;-84
2022/06/29 10:10:14;;;;;;;;;0.00;0.00;;;;;37.84;18.29;100563.22;5095016;27;45458;-82
2022/06/29 10:15:53;;;;;;;;;0.00;0.00;;;;;37.58;17.94;100526.25;5088658;27;45578;-79
2022/06/29 10:18:44;;;;;;;;;1.25;1.00;;;;;37.92;18.43;100557.47;5076423;27;45335;-82
2022/06/29 10:21:17;;;;;;;;;0.00;0.00;;;;;38.00;18.10;100557.25;5080631;27;45512;-84
2022/06/29 10:23:50;;;;;;;;;0.00;0.00;;;;;38.09;18.25;100548.78;5090040;27;45478;-80
2022/06/29 10:26:31;;;;;;;;;0.00;0.00;;;;;37.84;17.64;100549.41;5082228;27;45569;-79
2022/06/29 10:29:17;;;;;;;;;0.00;0.00;;;;;37.76;18.49;100536.66;5086962;27;45468;-78
2022/06/29 10:31:51;;;;;;;;;0.00;0.00;;;;;37.54;17.35;100549.78;5084297;27;45387;-83
2022/06/29 10:34:31;;;;;;;;;0.00;0.00;;;;;37.36;18.47;100546.78;5084816;27;45506;-82
2022/06/29 10:37:05;;;;;;;;;0.00;0.00;;;;;37.43;18.70;100539.34;5105744;27;45657;-82
2022/06/29 10:40:04;;;;;;;;;0.00;0.00;;;;;37.39;17.86;100536.16;5089270;27;45422;-82
2022/06/29 10:45:18;;;;;;;;;0.50;0.00;;;;;36.10;18.27;100512.81;5025945;28;45554;-80
2022/06/29 10:47:47;;;;;;;;;0.50;0.50;;;;;36.49;18.80;100519.66;5020771;28;45449;-80
2022/06/29 10:50:20;;;;;;;;;0.00;0.00;;;;;36.66;18.01;100522.91;5019265;28;45644;-79
2022/06/29 10:52:47;;;;;;;;;0.25;0.25;;;;;36.67;18.28;100512.75;5024207;28;45643;-79
2022/06/29 10:55:13;;;;;;;;;0.00;0.00;;;;;36.92;17.69;100511.22;5028584;28;46279;-80
2022/06/29 10:57:42;;;;;;;;;0.00;0.00;;;;;36.92;18.02;100515.88;5028921;28;45546;-81
2022/06/29 11:00:14;;;;;;;;;0.00;0.00;;;;;37.07;17.76;100524.81;5029380;28;45517;-80
2022/06/29 11:02:41;;;;;;;;;0.00;0.00;;;;;36.74;17.61;100475.13;5027888;28;45595;-82
2022/06/29 11:05:07;;;;;;;;;0.75;0.00;;;;;36.97;17.67;100527.97;5029965;28;45518;-79
2022/06/29 11:13:05;;;;;;;;;2.00;0.00;;;;;37.33;17.90;100524.06;4991649;28;45590;-77
2022/06/29 11:18:18;;;;;;;;;1.00;1.00;;;;;37.42;17.24;100508.19;4999658;28;45428;-78
2022/06/29 11:20:49;;;;;;;;;0.50;0.50;;;;;37.53;17.87;100512.25;5018522;28;45623;-77
2022/06/29 11:23:17;;;;;;;;;1.00;0.00;;;;;37.65;17.53;100493.19;5023236;28;45563;-79
2022/06/29 11:25:46;;;;;;;;;0.50;0.50;;;;;37.80;18.18;100498.53;5020145;28;46325;-79
2022/06/29 11:28:12;;;;;;;;;2.00;0.00;;;;;37.92;17.22;100501.50;5024864;28;45593;-79
2022/06/29 11:30:37;;;;;;;;;1.00;1.00;;;;;37.67;17.65;100480.03;5019149;28;45471;-79
2022/06/29 11:33:11;;;;;;;;;0.00;0.00;;;;;37.55;17.83;100504.63;5020027;28;45452;-84
2022/06/29 11:35:42;;;;;;;;;0.25;0.00;;;;;37.44;17.16;100508.00;5022527;28;46185;-78
2022/06/29 11:38:08;;;;;;;;;0.00;0.00;;;;;37.27;17.96;100497.34;5005357;28;45388;-82
2022/06/29 11:40:38;;;;;;;;;0.00;0.00;;;;;37.29;17.65;100500.78;5019227;28;45476;-83
2022/06/29 11:43:07;;;;;;;;;0.00;0.00;;;;;37.27;17.91;100496.53;5023610;28;45424;-83